createdAt,value
2018-06-21T00:04:45.879Z,53.30
2018-06-21T00:09:49.092Z,53.30
2018-06-21T00:14:52.276Z,53.30
2018-06-21T00:19:55.471Z,53.30
2018-06-21T00:30:01.609Z,53.50
2018-06-21T00:35:04.871Z,53.60
2018-06-21T00:40:08.059Z,53.60
2018-06-21T00:45:11.490Z,53.70
2018-06-21T00:50:14.674Z,53.80
2018-06-21T00:55:29.212Z,53.90
2018-06-21T01:00:32.408Z,53.80
2018-06-21T01:05:35.619Z,53.90
2018-06-21T01:21:33.032Z,54.20
2018-06-21T01:26:36.231Z,54.20
2018-06-21T01:31:39.422Z,54.10
2018-06-21T01:36:42.612Z,54.10
2018-06-21T01:41:45.807Z,54.30
2018-06-21T01:51:51.954Z,54.30
2018-06-21T01:56:55.161Z,54.40
2018-06-21T02:01:58.533Z,54.30
2018-06-21T02:07:01.812Z,54.20
2018-06-21T02:12:05.036Z,54.50
2018-06-21T02:17:08.235Z,54.20
2018-06-21T02:22:11.435Z,54.50
2018-06-21T02:27:14.738Z,54.70
2018-06-21T02:32:17.938Z,54.70
2018-06-21T02:37:21.148Z,54.70
2018-06-21T02:42:24.356Z,54.60
2018-06-21T02:47:27.571Z,54.80
2018-06-21T02:52:30.771Z,54.60
2018-06-21T02:57:33.967Z,54.90
2018-06-21T03:02:37.163Z,54.90
2018-06-21T03:07:40.355Z,54.90
2018-06-21T03:12:43.567Z,54.90
2018-06-21T03:17:46.755Z,54.90
2018-06-21T03:22:49.959Z,54.90
2018-06-21T03:27:53.147Z,54.90
2018-06-21T03:32:56.344Z,54.60
2018-06-21T03:37:59.931Z,55.10
2018-06-21T03:43:03.132Z,55.00
2018-06-21T03:48:06.341Z,55.30
2018-06-21T03:53:09.776Z,55.00
2018-06-21T03:58:12.985Z,54.80
2018-06-21T04:03:16.167Z,55.10
2018-06-21T04:08:19.374Z,55.10
2018-06-21T04:13:22.584Z,55.30
2018-06-21T04:18:30.022Z,55.30
2018-06-21T04:23:33.372Z,55.20
2018-06-21T04:28:36.559Z,55.10
2018-06-21T04:33:39.746Z,55.20
2018-06-21T04:38:42.932Z,55.30
2018-06-21T04:43:46.143Z,55.20
2018-06-21T04:48:49.327Z,55.30
2018-06-21T04:53:52.531Z,55.60
2018-06-21T04:58:55.724Z,55.70
2018-06-21T05:03:58.936Z,55.70
2018-06-21T05:09:03.203Z,56.00
2018-06-21T05:14:06.479Z,56.00
2018-06-21T05:19:09.659Z,56.40
2018-06-21T05:24:12.857Z,56.40
2018-06-21T05:29:16.035Z,56.60
2018-06-21T05:34:19.223Z,56.40
2018-06-21T05:39:22.415Z,56.90
2018-06-21T05:44:25.649Z,57.00
2018-06-21T05:49:28.795Z,56.70
2018-06-21T05:54:31.988Z,56.80
2018-06-21T05:59:35.185Z,57.20
2018-06-21T06:04:38.376Z,57.20
2018-06-21T06:09:41.588Z,57.40
2018-06-21T06:14:44.784Z,57.20
2018-06-21T06:19:47.987Z,57.30
2018-06-21T06:24:51.268Z,57.10
2018-06-21T06:29:54.463Z,57.40
2018-06-21T06:34:57.671Z,57.20
2018-06-21T06:40:00.864Z,57.10
2018-06-21T06:45:04.241Z,57.00
2018-06-21T06:50:07.427Z,57.20
2018-06-21T06:55:10.636Z,57.30
2018-06-21T07:00:13.820Z,57.60
2018-06-21T07:05:17.011Z,57.60
2018-06-21T07:10:20.231Z,57.50
2018-06-21T07:15:23.424Z,58.00
2018-06-21T07:20:26.653Z,58.10
2018-06-21T07:25:29.807Z,57.70
2018-06-21T07:30:33.008Z,58.00
2018-06-21T07:35:36.213Z,58.00
2018-06-21T07:40:39.483Z,58.00
2018-06-21T07:45:42.951Z,57.90
2018-06-21T07:50:46.160Z,57.80
2018-06-21T07:55:49.372Z,57.70
2018-06-21T08:00:52.572Z,57.70
2018-06-21T08:05:55.770Z,57.70
2018-06-21T08:10:59.601Z,57.60
2018-06-21T08:16:02.932Z,57.30
2018-06-21T08:21:06.259Z,57.50
2018-06-21T08:26:09.497Z,57.60
2018-06-21T08:31:12.737Z,57.30
2018-06-21T08:36:16.003Z,57.60
2018-06-21T08:41:19.208Z,57.70
2018-06-21T08:46:22.432Z,57.70
2018-06-21T08:51:25.623Z,58.00
2018-06-21T08:56:28.843Z,58.30
2018-06-21T09:01:32.044Z,58.20
2018-06-21T09:06:35.260Z,57.70
2018-06-21T09:11:38.484Z,57.60
2018-06-21T09:16:41.701Z,57.40
2018-06-21T09:21:44.885Z,57.30
2018-06-21T09:26:48.061Z,57.20
2018-06-21T09:31:51.263Z,56.90
2018-06-21T09:42:02.778Z,56.10
2018-06-21T09:47:11.295Z,56.10
2018-06-21T09:52:14.496Z,55.80
2018-06-21T09:57:17.683Z,55.90
2018-06-21T10:02:20.887Z,55.60
2018-06-21T10:07:24.076Z,54.70
2018-06-21T10:12:27.275Z,54.40
2018-06-21T10:17:30.483Z,54.50
2018-06-21T10:22:33.699Z,54.10
2018-06-21T10:27:36.879Z,53.80
2018-06-21T10:32:40.086Z,51.20
2018-06-21T10:37:43.351Z,52.70
2018-06-21T10:42:46.555Z,52.50
2018-06-21T10:47:49.753Z,50.70
2018-06-21T10:52:52.940Z,51.00
2018-06-21T10:57:56.135Z,49.30
2018-06-21T11:02:59.336Z,50.80
2018-06-21T11:08:02.540Z,49.20
2018-06-21T11:13:05.848Z,50.10
2018-06-21T11:18:09.064Z,48.70
2018-06-21T11:23:12.279Z,47.20
2018-06-21T11:28:15.523Z,47.40
2018-06-21T11:33:18.735Z,48.20
2018-06-21T11:38:21.936Z,46.90
2018-06-21T11:43:25.371Z,47.00
2018-06-21T11:48:28.627Z,45.00
2018-06-21T11:53:31.814Z,43.80
2018-06-21T11:58:35.087Z,43.50
2018-06-21T12:03:38.279Z,43.70
2018-06-21T12:08:41.544Z,44.30
2018-06-21T12:13:44.703Z,41.80
2018-06-21T12:18:47.903Z,39.60
2018-06-21T12:23:51.092Z,43.40
2018-06-21T12:28:54.299Z,43.00
2018-06-21T12:33:57.511Z,43.30
2018-06-21T12:39:00.800Z,42.70
2018-06-21T12:44:05.971Z,46.20
2018-06-21T12:49:09.175Z,43.30
2018-06-21T12:54:12.396Z,42.90
2018-06-21T12:59:15.603Z,42.50
2018-06-21T13:04:19.168Z,39.60
2018-06-21T13:09:33.696Z,39.20
2018-06-21T13:14:36.916Z,39.30
2018-06-21T13:19:40.124Z,37.10
2018-06-21T13:24:43.543Z,38.00
2018-06-21T13:29:46.802Z,39.10
2018-06-21T13:34:50.214Z,38.90
2018-06-21T13:39:57.413Z,38.10
2018-06-21T13:45:00.676Z,37.80
2018-06-21T13:50:03.924Z,38.10
2018-06-21T13:55:07.135Z,39.80
2018-06-21T14:00:10.347Z,38.40
2018-06-21T14:05:13.748Z,38.30
2018-06-21T14:10:16.992Z,36.70
2018-06-21T14:15:20.196Z,38.70
2018-06-21T14:20:23.399Z,38.50
2018-06-21T14:25:26.608Z,35.70
2018-06-21T14:30:29.815Z,37.80
2018-06-21T14:35:33.020Z,36.50
2018-06-21T14:40:38.407Z,36.70
2018-06-21T14:45:43.313Z,36.10
2018-06-21T14:50:46.536Z,35.50
2018-06-21T14:55:49.773Z,37.20
2018-06-21T15:00:53.023Z,38.80
2018-06-21T15:05:56.227Z,38.30
2018-06-21T15:10:59.463Z,39.70
2018-06-21T15:16:02.659Z,38.80
2018-06-21T15:21:05.924Z,36.80
2018-06-21T15:26:09.124Z,39.80
2018-06-21T15:31:12.344Z,38.40
2018-06-21T15:36:15.532Z,40.00
2018-06-21T15:41:18.732Z,38.00
2018-06-21T15:46:21.952Z,38.90
2018-06-21T15:51:25.157Z,38.10
2018-06-21T15:56:28.367Z,37.80
2018-06-21T16:01:31.571Z,36.30
2018-06-21T16:06:34.785Z,38.60
2018-06-21T16:11:38.392Z,37.70
2018-06-21T16:16:41.586Z,40.10
2018-06-21T16:21:44.796Z,39.90
2018-06-21T16:26:47.976Z,40.30
2018-06-21T16:31:51.183Z,40.00
2018-06-21T16:36:54.392Z,38.50
2018-06-21T16:41:57.596Z,39.60
2018-06-21T16:47:00.796Z,41.10
2018-06-21T16:52:03.982Z,40.30
2018-06-21T16:57:07.175Z,40.30
2018-06-21T17:02:10.438Z,40.40
2018-06-21T17:07:13.591Z,40.20
2018-06-21T17:12:16.807Z,39.90
2018-06-21T17:17:20.012Z,40.80
2018-06-21T17:22:23.239Z,39.60
2018-06-21T17:27:26.447Z,40.80
2018-06-21T17:32:29.669Z,41.00
2018-06-21T17:37:32.863Z,40.20
2018-06-21T17:42:36.307Z,39.70
2018-06-21T17:47:39.761Z,41.10
2018-06-21T17:52:42.947Z,42.40
2018-06-21T17:57:46.392Z,42.90
2018-06-21T18:02:49.579Z,43.10
2018-06-21T18:07:52.810Z,43.10
2018-06-21T18:12:56.742Z,43.20
2018-06-21T18:17:59.956Z,43.30
2018-06-21T18:23:03.177Z,43.00
2018-06-21T18:28:06.444Z,42.10
2018-06-21T18:33:09.630Z,42.30
2018-06-21T18:38:12.808Z,42.10
2018-06-21T18:43:16.049Z,43.30
2018-06-21T18:48:19.243Z,42.90
2018-06-21T18:53:22.423Z,42.70
2018-06-21T18:58:25.926Z,42.90
2018-06-21T19:03:29.115Z,42.60
2018-06-21T19:08:37.736Z,42.60
2018-06-21T19:13:43.947Z,42.90
2018-06-21T19:18:47.141Z,42.30
2018-06-21T19:23:50.377Z,40.40
2018-06-21T19:31:01.451Z,40.70
2018-06-21T19:36:04.675Z,40.90
2018-06-21T19:41:07.884Z,42.90
2018-06-21T19:46:11.172Z,42.70
2018-06-21T19:51:14.376Z,42.00
2018-06-21T19:56:17.571Z,41.80
2018-06-21T20:01:20.843Z,42.80
2018-06-21T20:06:24.020Z,43.50
2018-06-21T20:11:32.511Z,42.70
2018-06-21T20:16:35.700Z,42.90
2018-06-21T20:21:38.915Z,43.40
2018-06-21T20:26:42.115Z,43.50
2018-06-21T20:31:45.301Z,43.00
2018-06-21T20:36:48.488Z,43.00
2018-06-21T20:41:51.695Z,43.40
2018-06-21T20:46:54.951Z,43.90
2018-06-21T20:51:58.151Z,43.60
2018-06-21T20:57:01.346Z,43.80
2018-06-21T21:02:04.552Z,43.90
2018-06-21T21:07:07.740Z,43.80
2018-06-21T21:12:10.966Z,44.00
2018-06-21T21:17:14.184Z,44.00
2018-06-21T21:22:17.419Z,44.40
2018-06-21T21:27:20.696Z,44.60
2018-06-21T21:32:24.737Z,44.80
2018-06-21T21:37:28.364Z,45.00
2018-06-21T21:42:32.716Z,44.90
2018-06-21T21:47:35.912Z,44.70
2018-06-21T21:52:39.151Z,44.70
2018-06-21T21:57:42.298Z,43.80
2018-06-21T22:02:45.502Z,44.90
2018-06-21T22:07:48.688Z,44.90
2018-06-21T22:12:51.899Z,45.20
2018-06-21T22:17:55.088Z,45.10
2018-06-21T22:22:59.301Z,45.10
2018-06-21T22:28:02.484Z,45.00
2018-06-21T22:33:05.684Z,45.10
2018-06-21T22:38:08.888Z,45.20
2018-06-21T22:43:12.072Z,45.10
2018-06-21T22:48:15.268Z,45.30
2018-06-21T22:53:18.462Z,45.20
2018-06-21T22:58:21.632Z,45.30
2018-06-21T23:03:24.887Z,45.10
2018-06-21T23:08:28.059Z,45.00
2018-06-21T23:13:31.265Z,45.10
2018-06-21T23:18:45.698Z,45.40
2018-06-21T23:23:48.880Z,45.30
2018-06-21T23:28:52.068Z,45.20
2018-06-21T23:33:55.296Z,46.00
2018-06-21T23:38:58.497Z,45.60
2018-06-21T23:44:01.677Z,45.40
2018-06-21T23:49:04.935Z,45.50
2018-06-21T23:54:11.827Z,45.60
2018-06-21T23:59:15.018Z,45.50
